CheckWX is a tool to help pilots better visualize weather data.  It is not intended as a substitute for an official pre-flight weather briefing.

01:07:15 UTC

EDLN TAF
Mönchengladbach Airport
Mönchengladbach, Germany
TAF AMD EDLN 231820Z 2318/2403 13006KT CAVOK

Feb-23@
18:00 UTC

Feb-23 @ 18:00 UTC

Feb-24@
03:00 UTC

Feb-24 @ 03:00 UTC

TAF AMD EDLN 231820Z 2318/2403 13006KT CAVOK
Wind
  • 130° at 6 KTS
Conditions
No significant weather
Cloud Levels
  • No significant clouds